sensor_id;sensor_type;location;lat;lon;timestamp;P1;durP1;ratioP1;P2;durP2;ratioP2
67227;SDS011;54139;42.616;23.748;2023-05-07T04:13:54;10.63;;;9.55;;
67227;SDS011;54139;42.616;23.748;2023-05-07T04:16:20;9.52;;;8.25;;
67227;SDS011;54139;42.616;23.748;2023-05-07T04:18:45;8.45;;;7.75;;
67227;SDS011;54139;42.616;23.748;2023-05-07T04:21:17;7.40;;;6.80;;
67227;SDS011;54139;42.616;23.748;2023-05-07T04:23:43;13.77;;;12.55;;
67227;SDS011;54139;42.616;23.748;2023-05-07T04:26:08;10.85;;;9.75;;
67227;SDS011;54139;42.616;23.748;2023-05-07T04:28:34;15.32;;;13.82;;
67227;SDS011;54139;42.616;23.748;2023-05-07T04:30:59;8.73;;;8.02;;
67227;SDS011;54139;42.616;23.748;2023-05-07T04:33:24;9.18;;;8.45;;
67227;SDS011;54139;42.616;23.748;2023-05-07T04:35:49;9.07;;;8.20;;
67227;SDS011;54139;42.616;23.748;2023-05-07T04:38:15;8.27;;;7.17;;
67227;SDS011;54139;42.616;23.748;2023-05-07T04:40:41;9.48;;;6.65;;
67227;SDS011;54139;42.616;23.748;2023-05-07T04:43:07;4.80;;;4.32;;
67227;SDS011;54139;42.616;23.748;2023-05-07T04:45:34;4.65;;;4.35;;
67227;SDS011;54139;42.616;23.748;2023-05-07T04:47:59;5.82;;;5.43;;
67227;SDS011;54139;42.616;23.748;2023-05-07T04:50:25;6.77;;;6.20;;
67227;SDS011;54139;42.616;23.748;2023-05-07T04:52:50;6.32;;;5.65;;
67227;SDS011;54139;42.616;23.748;2023-05-07T04:55:16;5.93;;;5.53;;
67227;SDS011;54139;42.616;23.748;2023-05-07T04:57:41;6.80;;;6.20;;
67227;SDS011;54139;42.616;23.748;2023-05-07T05:00:07;5.67;;;5.17;;
67227;SDS011;54139;42.616;23.748;2023-05-07T05:02:33;5.83;;;5.33;;
67227;SDS011;54139;42.616;23.748;2023-05-07T05:04:59;5.30;;;4.90;;
67227;SDS011;54139;42.616;23.748;2023-05-07T05:07:24;5.22;;;4.72;;
67227;SDS011;54139;42.616;23.748;2023-05-07T05:09:50;6.03;;;5.53;;
67227;SDS011;54139;42.616;23.748;2023-05-07T05:12:15;5.90;;;5.40;;
67227;SDS011;54139;42.616;23.748;2023-05-07T05:14:40;4.33;;;3.97;;
67227;SDS011;54139;42.616;23.748;2023-05-07T05:17:06;4.43;;;4.03;;
67227;SDS011;54139;42.616;23.748;2023-05-07T05:19:31;4.63;;;4.20;;
67227;SDS011;54139;42.616;23.748;2023-05-07T05:21:56;4.00;;;3.47;;
67227;SDS011;54139;42.616;23.748;2023-05-07T05:24:21;3.60;;;3.30;;
67227;SDS011;54139;42.616;23.748;2023-05-07T05:26:47;4.38;;;3.30;;
67227;SDS011;54139;42.616;23.748;2023-05-07T05:29:12;3.90;;;3.60;;
67227;SDS011;54139;42.616;23.748;2023-05-07T05:31:37;4.10;;;3.80;;
67227;SDS011;54139;42.616;23.748;2023-05-07T05:34:03;3.90;;;3.50;;
67227;SDS011;54139;42.616;23.748;2023-05-07T05:36:28;4.60;;;3.97;;
67227;SDS011;54139;42.616;23.748;2023-05-07T05:38:54;7.30;;;4.00;;
67227;SDS011;54139;42.616;23.748;2023-05-07T05:41:19;4.20;;;3.90;;
67227;SDS011;54139;42.616;23.748;2023-05-07T05:43:45;3.67;;;3.38;;
67227;SDS011;54139;42.616;23.748;2023-05-07T05:46:10;5.77;;;3.57;;
67227;SDS011;54139;42.616;23.748;2023-05-07T05:48:36;3.60;;;3.35;;
67227;SDS011;54139;42.616;23.748;2023-05-07T05:51:02;4.70;;;3.70;;
67227;SDS011;54139;42.616;23.748;2023-05-07T05:53:27;5.53;;;3.80;;
67227;SDS011;54139;42.616;23.748;2023-05-07T05:55:52;5.50;;;4.07;;
67227;SDS011;54139;42.616;23.748;2023-05-07T05:58:18;3.70;;;3.40;;
67227;SDS011;54139;42.616;23.748;2023-05-07T06:00:44;4.73;;;3.70;;
67227;SDS011;54139;42.616;23.748;2023-05-07T06:03:09;8.90;;;3.93;;
67227;SDS011;54139;42.616;23.748;2023-05-07T06:05:35;4.30;;;3.85;;
67227;SDS011;54139;42.616;23.748;2023-05-07T06:08:00;3.90;;;3.37;;
67227;SDS011;54139;42.616;23.748;2023-05-07T06:10:26;3.73;;;3.40;;
67227;SDS011;54139;42.616;23.748;2023-05-07T06:12:52;4.30;;;3.90;;
67227;SDS011;54139;42.616;23.748;2023-05-07T06:15:17;7.53;;;3.97;;
67227;SDS011;54139;42.616;23.748;2023-05-07T06:17:42;4.68;;;4.28;;
67227;SDS011;54139;42.616;23.748;2023-05-07T06:20:08;4.45;;;4.05;;
67227;SDS011;54139;42.616;23.748;2023-05-07T06:22:33;4.72;;;4.32;;
67227;SDS011;54139;42.616;23.748;2023-05-07T06:24:58;4.38;;;4.03;;
67227;SDS011;54139;42.616;23.748;2023-05-07T06:27:24;4.60;;;4.20;;
67227;SDS011;54139;42.616;23.748;2023-05-07T06:29:49;9.00;;;4.30;;
67227;SDS011;54139;42.616;23.748;2023-05-07T06:32:14;5.65;;;4.22;;
67227;SDS011;54139;42.616;23.748;2023-05-07T06:34:40;5.13;;;4.07;;
67227;SDS011;54139;42.616;23.748;2023-05-07T06:37:06;7.05;;;4.60;;
67227;SDS011;54139;42.616;23.748;2023-05-07T06:39:31;5.03;;;4.22;;
67227;SDS011;54139;42.616;23.748;2023-05-07T06:41:57;4.15;;;3.85;;
67227;SDS011;54139;42.616;23.748;2023-05-07T06:44:22;5.05;;;4.00;;
67227;SDS011;54139;42.616;23.748;2023-05-07T06:46:47;6.87;;;5.27;;
67227;SDS011;54139;42.616;23.748;2023-05-07T06:49:13;6.95;;;5.03;;
67227;SDS011;54139;42.616;23.748;2023-05-07T06:51:38;5.68;;;5.20;;
67227;SDS011;54139;42.616;23.748;2023-05-07T06:54:04;7.60;;;4.95;;
67227;SDS011;54139;42.616;23.748;2023-05-07T06:56:30;5.15;;;4.50;;
67227;SDS011;54139;42.616;23.748;2023-05-07T06:58:55;5.22;;;4.72;;
67227;SDS011;54139;42.616;23.748;2023-05-07T07:01:20;4.97;;;4.57;;
67227;SDS011;54139;42.616;23.748;2023-05-07T07:03:46;5.67;;;5.13;;
67227;SDS011;54139;42.616;23.748;2023-05-07T07:06:11;5.97;;;4.55;;
67227;SDS011;54139;42.616;23.748;2023-05-07T07:08:37;6.75;;;4.80;;
67227;SDS011;54139;42.616;23.748;2023-05-07T07:11:03;6.18;;;5.30;;
67227;SDS011;54139;42.616;23.748;2023-05-07T07:13:29;6.30;;;4.50;;
67227;SDS011;54139;42.616;23.748;2023-05-07T07:15:54;7.03;;;5.00;;
67227;SDS011;54139;42.616;23.748;2023-05-07T07:18:19;5.83;;;5.10;;
67227;SDS011;54139;42.616;23.748;2023-05-07T07:20:45;6.47;;;5.20;;
67227;SDS011;54139;42.616;23.748;2023-05-07T07:23:10;5.78;;;5.25;;
67227;SDS011;54139;42.616;23.748;2023-05-07T07:25:36;5.78;;;4.95;;
67227;SDS011;54139;42.616;23.748;2023-05-07T07:28:01;5.53;;;4.70;;
67227;SDS011;54139;42.616;23.748;2023-05-07T07:30:26;6.53;;;5.93;;
67227;SDS011;54139;42.616;23.748;2023-05-07T07:32:52;6.22;;;5.63;;
67227;SDS011;54139;42.616;23.748;2023-05-07T07:35:17;5.20;;;4.80;;
67227;SDS011;54139;42.616;23.748;2023-05-07T07:37:43;6.57;;;5.88;;
67227;SDS011;54139;42.616;23.748;2023-05-07T07:40:08;8.63;;;6.15;;
67227;SDS011;54139;42.616;23.748;2023-05-07T07:42:34;7.20;;;5.90;;
67227;SDS011;54139;42.616;23.748;2023-05-07T07:44:59;8.30;;;5.55;;
67227;SDS011;54139;42.616;23.748;2023-05-07T07:47:24;6.25;;;5.70;;
67227;SDS011;54139;42.616;23.748;2023-05-07T07:49:50;7.20;;;6.55;;
67227;SDS011;54139;42.616;23.748;2023-05-07T07:52:15;10.50;;;6.53;;
67227;SDS011;54139;42.616;23.748;2023-05-07T07:54:40;5.93;;;5.40;;
67227;SDS011;54139;42.616;23.748;2023-05-07T07:57:06;6.68;;;5.78;;
67227;SDS011;54139;42.616;23.748;2023-05-07T07:59:31;6.70;;;6.20;;
67227;SDS011;54139;42.616;23.748;2023-05-07T08:01:56;7.70;;;6.57;;
67227;SDS011;54139;42.616;23.748;2023-05-07T08:04:22;8.07;;;5.75;;
67227;SDS011;54139;42.616;23.748;2023-05-07T08:06:47;6.07;;;4.82;;
67227;SDS011;54139;42.616;23.748;2023-05-07T08:09:12;6.57;;;4.78;;
67227;SDS011;54139;42.616;23.748;2023-05-07T08:11:38;7.10;;;5.50;;
67227;SDS011;54139;42.616;23.748;2023-05-07T08:14:03;7.97;;;5.32;;
67227;SDS011;54139;42.616;23.748;2023-05-07T08:16:29;5.95;;;4.60;;
67227;SDS011;54139;42.616;23.748;2023-05-07T08:18:54;7.88;;;3.85;;
67227;SDS011;54139;42.616;23.748;2023-05-07T08:21:19;3.58;;;3.30;;
67227;SDS011;54139;42.616;23.748;2023-05-07T08:23:45;5.05;;;3.95;;
67227;SDS011;54139;42.616;23.748;2023-05-07T08:26:10;4.45;;;3.80;;
67227;SDS011;54139;42.616;23.748;2023-05-07T08:28:36;4.50;;;3.83;;
67227;SDS011;54139;42.616;23.748;2023-05-07T08:31:01;6.40;;;4.50;;
67227;SDS011;54139;42.616;23.748;2023-05-07T08:33:27;4.93;;;4.43;;
67227;SDS011;54139;42.616;23.748;2023-05-07T08:35:52;6.22;;;4.40;;
67227;SDS011;54139;42.616;23.748;2023-05-07T08:38:17;3.95;;;3.45;;
67227;SDS011;54139;42.616;23.748;2023-05-07T08:40:43;3.95;;;3.65;;
67227;SDS011;54139;42.616;23.748;2023-05-07T08:43:08;3.80;;;3.50;;
67227;SDS011;54139;42.616;23.748;2023-05-07T08:45:37;6.32;;;3.42;;
67227;SDS011;54139;42.616;23.748;2023-05-07T08:48:05;2.97;;;2.78;;
67227;SDS011;54139;42.616;23.748;2023-05-07T08:50:35;3.00;;;2.78;;
67227;SDS011;54139;42.616;23.748;2023-05-07T08:53:00;3.40;;;3.00;;
67227;SDS011;54139;42.616;23.748;2023-05-07T08:55:28;2.65;;;2.45;;
67227;SDS011;54139;42.616;23.748;2023-05-07T08:57:53;4.47;;;3.10;;
67227;SDS011;54139;42.616;23.748;2023-05-07T09:00:18;3.42;;;3.20;;
67227;SDS011;54139;42.616;23.748;2023-05-07T09:02:44;5.68;;;2.92;;
67227;SDS011;54139;42.616;23.748;2023-05-07T09:05:09;3.45;;;3.15;;
67227;SDS011;54139;42.616;23.748;2023-05-07T09:07:34;3.25;;;2.95;;
67227;SDS011;54139;42.616;23.748;2023-05-07T09:10:03;3.77;;;2.50;;
67227;SDS011;54139;42.616;23.748;2023-05-07T09:12:29;5.65;;;2.63;;
67227;SDS011;54139;42.616;23.748;2023-05-07T09:14:54;2.80;;;2.60;;
67227;SDS011;54139;42.616;23.748;2023-05-07T09:17:20;2.65;;;2.40;;
67227;SDS011;54139;42.616;23.748;2023-05-07T09:19:45;2.88;;;2.67;;
67227;SDS011;54139;42.616;23.748;2023-05-07T09:22:11;3.22;;;2.28;;
67227;SDS011;54139;42.616;23.748;2023-05-07T09:24:36;3.70;;;2.50;;
67227;SDS011;54139;42.616;23.748;2023-05-07T09:27:03;2.85;;;2.40;;
67227;SDS011;54139;42.616;23.748;2023-05-07T09:29:28;3.47;;;2.50;;
67227;SDS011;54139;42.616;23.748;2023-05-07T09:31:55;3.15;;;2.85;;
67227;SDS011;54139;42.616;23.748;2023-05-07T09:34:20;3.33;;;3.03;;
67227;SDS011;54139;42.616;23.748;2023-05-07T09:36:46;3.80;;;2.97;;
67227;SDS011;54139;42.616;23.748;2023-05-07T09:39:11;3.42;;;2.38;;
67227;SDS011;54139;42.616;23.748;2023-05-07T09:41:44;2.85;;;2.45;;
67227;SDS011;54139;42.616;23.748;2023-05-07T09:44:10;5.50;;;2.80;;
67227;SDS011;54139;42.616;23.748;2023-05-07T09:46:36;3.25;;;2.50;;
67227;SDS011;54139;42.616;23.748;2023-05-07T09:49:03;3.35;;;2.70;;
67227;SDS011;54139;42.616;23.748;2023-05-07T09:53:57;5.70;;;2.40;;
67227;SDS011;54139;42.616;23.748;2023-05-07T09:56:22;2.60;;;2.40;;
67227;SDS011;54139;42.616;23.748;2023-05-07T09:58:48;3.25;;;2.95;;
67227;SDS011;54139;42.616;23.748;2023-05-07T10:01:14;4.22;;;3.50;;
67227;SDS011;54139;42.616;23.748;2023-05-07T10:03:42;3.35;;;3.00;;
67227;SDS011;54139;42.616;23.748;2023-05-07T10:06:09;4.10;;;2.78;;
67227;SDS011;54139;42.616;23.748;2023-05-07T10:08:35;4.20;;;2.75;;
67227;SDS011;54139;42.616;23.748;2023-05-07T10:11:01;3.92;;;2.60;;
67227;SDS011;54139;42.616;23.748;2023-05-07T10:13:26;2.72;;;2.30;;
67227;SDS011;54139;42.616;23.748;2023-05-07T10:15:52;3.10;;;2.45;;
67227;SDS011;54139;42.616;23.748;2023-05-07T10:18:18;4.13;;;2.38;;
67227;SDS011;54139;42.616;23.748;2023-05-07T10:20:47;4.78;;;2.70;;
67227;SDS011;54139;42.616;23.748;2023-05-07T10:23:13;4.68;;;2.78;;
67227;SDS011;54139;42.616;23.748;2023-05-07T10:25:40;3.60;;;2.60;;
67227;SDS011;54139;42.616;23.748;2023-05-07T10:28:07;5.55;;;2.58;;
67227;SDS011;54139;42.616;23.748;2023-05-07T10:32:59;2.73;;;2.30;;
67227;SDS011;54139;42.616;23.748;2023-05-07T10:35:31;2.95;;;2.28;;
67227;SDS011;54139;42.616;23.748;2023-05-07T10:37:57;3.33;;;2.45;;
67227;SDS011;54139;42.616;23.748;2023-05-07T10:40:23;2.45;;;2.22;;
67227;SDS011;54139;42.616;23.748;2023-05-07T10:42:55;3.72;;;2.40;;
67227;SDS011;54139;42.616;23.748;2023-05-07T10:45:22;5.13;;;2.55;;
67227;SDS011;54139;42.616;23.748;2023-05-07T10:50:31;3.95;;;2.53;;
67227;SDS011;54139;42.616;23.748;2023-05-07T10:55:40;3.97;;;2.60;;
67227;SDS011;54139;42.616;23.748;2023-05-07T11:00:46;3.65;;;2.60;;
67227;SDS011;54139;42.616;23.748;2023-05-07T11:03:12;3.75;;;2.70;;
67227;SDS011;54139;42.616;23.748;2023-05-07T11:05:37;2.97;;;2.45;;
67227;SDS011;54139;42.616;23.748;2023-05-07T11:08:03;3.38;;;2.58;;
67227;SDS011;54139;42.616;23.748;2023-05-07T11:10:48;3.58;;;2.38;;
67227;SDS011;54139;42.616;23.748;2023-05-07T11:13:13;2.78;;;2.08;;
67227;SDS011;54139;42.616;23.748;2023-05-07T11:15:40;2.45;;;2.25;;
67227;SDS011;54139;42.616;23.748;2023-05-07T11:18:07;5.30;;;2.50;;
67227;SDS011;54139;42.616;23.748;2023-05-07T11:25:58;3.45;;;2.33;;
67227;SDS011;54139;42.616;23.748;2023-05-07T11:28:23;2.60;;;2.28;;
67227;SDS011;54139;42.616;23.748;2023-05-07T11:30:48;2.33;;;2.13;;
67227;SDS011;54139;42.616;23.748;2023-05-07T11:33:16;2.30;;;2.10;;
67227;SDS011;54139;42.616;23.748;2023-05-07T11:35:42;3.15;;;2.88;;
67227;SDS011;54139;42.616;23.748;2023-05-07T11:38:07;2.95;;;2.65;;
67227;SDS011;54139;42.616;23.748;2023-05-07T11:40:33;2.75;;;2.40;;
67227;SDS011;54139;42.616;23.748;2023-05-07T11:42:58;2.50;;;2.30;;
67227;SDS011;54139;42.616;23.748;2023-05-07T11:45:24;4.30;;;2.65;;
67227;SDS011;54139;42.616;23.748;2023-05-07T11:47:52;4.65;;;2.45;;
67227;SDS011;54139;42.616;23.748;2023-05-07T11:50:17;3.30;;;2.40;;
67227;SDS011;54139;42.616;23.748;2023-05-07T11:52:49;3.08;;;2.55;;
67227;SDS011;54139;42.616;23.748;2023-05-07T11:55:17;2.60;;;2.40;;
67227;SDS011;54139;42.616;23.748;2023-05-07T11:57:43;2.67;;;2.47;;
67227;SDS011;54139;42.616;23.748;2023-05-07T12:00:08;2.55;;;2.35;;
67227;SDS011;54139;42.616;23.748;2023-05-07T12:02:34;2.30;;;1.95;;
67227;SDS011;54139;42.616;23.748;2023-05-07T12:05:00;3.33;;;2.45;;
67227;SDS011;54139;42.616;23.748;2023-05-07T12:07:25;2.50;;;2.33;;
67227;SDS011;54139;42.616;23.748;2023-05-07T12:09:50;2.80;;;2.50;;
67227;SDS011;54139;42.616;23.748;2023-05-07T12:12:16;2.67;;;2.25;;
67227;SDS011;54139;42.616;23.748;2023-05-07T12:14:42;2.50;;;2.30;;
67227;SDS011;54139;42.616;23.748;2023-05-07T12:17:08;2.35;;;2.00;;
67227;SDS011;54139;42.616;23.748;2023-05-07T12:19:34;2.30;;;2.20;;
67227;SDS011;54139;42.616;23.748;2023-05-07T12:22:01;3.63;;;2.08;;
67227;SDS011;54139;42.616;23.748;2023-05-07T12:24:27;2.60;;;2.40;;
67227;SDS011;54139;42.616;23.748;2023-05-07T12:26:52;2.42;;;2.22;;
67227;SDS011;54139;42.616;23.748;2023-05-07T12:29:21;2.53;;;2.33;;
67227;SDS011;54139;42.616;23.748;2023-05-07T12:31:46;2.50;;;2.30;;
67227;SDS011;54139;42.616;23.748;2023-05-07T12:34:11;4.03;;;2.25;;
67227;SDS011;54139;42.616;23.748;2023-05-07T12:36:40;2.45;;;2.25;;
67227;SDS011;54139;42.616;23.748;2023-05-07T12:39:08;3.10;;;2.80;;
67227;SDS011;54139;42.616;23.748;2023-05-07T12:41:53;2.58;;;2.28;;
67227;SDS011;54139;42.616;23.748;2023-05-07T12:44:19;2.92;;;2.10;;
67227;SDS011;54139;42.616;23.748;2023-05-07T12:46:46;2.72;;;2.53;;
67227;SDS011;54139;42.616;23.748;2023-05-07T12:49:12;2.47;;;2.28;;
67227;SDS011;54139;42.616;23.748;2023-05-07T12:51:37;2.33;;;2.13;;
67227;SDS011;54139;42.616;23.748;2023-05-07T12:54:02;2.63;;;2.42;;
67227;SDS011;54139;42.616;23.748;2023-05-07T12:56:30;2.42;;;2.22;;
67227;SDS011;54139;42.616;23.748;2023-05-07T12:58:57;2.17;;;1.98;;
67227;SDS011;54139;42.616;23.748;2023-05-07T13:01:28;1.90;;;1.80;;
67227;SDS011;54139;42.616;23.748;2023-05-07T13:03:53;2.75;;;2.20;;
67227;SDS011;54139;42.616;23.748;2023-05-07T13:06:19;3.08;;;2.50;;
67227;SDS011;54139;42.616;23.748;2023-05-07T13:08:44;2.83;;;2.53;;
67227;SDS011;54139;42.616;23.748;2023-05-07T13:11:09;2.80;;;2.60;;
67227;SDS011;54139;42.616;23.748;2023-05-07T13:13:36;4.70;;;2.33;;
67227;SDS011;54139;42.616;23.748;2023-05-07T13:16:02;4.22;;;2.58;;
67227;SDS011;54139;42.616;23.748;2023-05-07T13:18:29;2.53;;;2.33;;
67227;SDS011;54139;42.616;23.748;2023-05-07T13:20:54;2.78;;;2.58;;
67227;SDS011;54139;42.616;23.748;2023-05-07T13:23:19;4.45;;;2.63;;
67227;SDS011;54139;42.616;23.748;2023-05-07T13:25:45;2.50;;;2.30;;
67227;SDS011;54139;42.616;23.748;2023-05-07T13:28:10;3.08;;;2.60;;
67227;SDS011;54139;42.616;23.748;2023-05-07T13:30:36;3.03;;;2.75;;
67227;SDS011;54139;42.616;23.748;2023-05-07T13:33:01;2.80;;;2.35;;
67227;SDS011;54139;42.616;23.748;2023-05-07T13:35:26;5.45;;;2.53;;
67227;SDS011;54139;42.616;23.748;2023-05-07T13:37:52;2.90;;;2.70;;
67227;SDS011;54139;42.616;23.748;2023-05-07T13:40:18;2.88;;;2.60;;
67227;SDS011;54139;42.616;23.748;2023-05-07T13:42:44;2.60;;;2.40;;
67227;SDS011;54139;42.616;23.748;2023-05-07T13:45:10;2.65;;;2.38;;
67227;SDS011;54139;42.616;23.748;2023-05-07T13:47:35;5.22;;;2.88;;
67227;SDS011;54139;42.616;23.748;2023-05-07T13:50:00;9.47;;;2.83;;
67227;SDS011;54139;42.616;23.748;2023-05-07T13:52:25;2.67;;;2.47;;
67227;SDS011;54139;42.616;23.748;2023-05-07T13:54:51;3.15;;;2.75;;
67227;SDS011;54139;42.616;23.748;2023-05-07T13:57:17;4.43;;;3.00;;
67227;SDS011;54139;42.616;23.748;2023-05-07T13:59:42;5.20;;;3.15;;
67227;SDS011;54139;42.616;23.748;2023-05-07T14:02:08;3.33;;;2.90;;
67227;SDS011;54139;42.616;23.748;2023-05-07T14:04:34;3.28;;;3.03;;
67227;SDS011;54139;42.616;23.748;2023-05-07T14:06:59;3.95;;;2.83;;
67227;SDS011;54139;42.616;23.748;2023-05-07T14:09:25;3.20;;;2.90;;
67227;SDS011;54139;42.616;23.748;2023-05-07T14:11:50;5.30;;;3.55;;
67227;SDS011;54139;42.616;23.748;2023-05-07T14:14:19;3.25;;;3.05;;
67227;SDS011;54139;42.616;23.748;2023-05-07T14:16:44;3.92;;;2.97;;
67227;SDS011;54139;42.616;23.748;2023-05-07T14:19:10;3.20;;;2.97;;
67227;SDS011;54139;42.616;23.748;2023-05-07T14:21:35;3.60;;;3.30;;
67227;SDS011;54139;42.616;23.748;2023-05-07T14:24:01;5.43;;;3.83;;
67227;SDS011;54139;42.616;23.748;2023-05-07T14:26:26;3.20;;;3.00;;
67227;SDS011;54139;42.616;23.748;2023-05-07T14:28:52;5.63;;;3.25;;
67227;SDS011;54139;42.616;23.748;2023-05-07T14:31:19;4.50;;;3.47;;
67227;SDS011;54139;42.616;23.748;2023-05-07T14:33:45;3.30;;;2.97;;
67227;SDS011;54139;42.616;23.748;2023-05-07T14:36:10;3.40;;;3.10;;
67227;SDS011;54139;42.616;23.748;2023-05-07T14:38:35;2.70;;;2.50;;
67227;SDS011;54139;42.616;23.748;2023-05-07T14:41:01;3.55;;;3.00;;
67227;SDS011;54139;42.616;23.748;2023-05-07T14:43:26;3.15;;;2.83;;
67227;SDS011;54139;42.616;23.748;2023-05-07T14:45:51;3.00;;;2.80;;
67227;SDS011;54139;42.616;23.748;2023-05-07T14:48:17;6.00;;;2.90;;
67227;SDS011;54139;42.616;23.748;2023-05-07T14:50:42;7.60;;;4.22;;
67227;SDS011;54139;42.616;23.748;2023-05-07T14:53:07;5.68;;;3.38;;
67227;SDS011;54139;42.616;23.748;2023-05-07T14:55:33;4.40;;;3.23;;
67227;SDS011;54139;42.616;23.748;2023-05-07T14:57:59;3.20;;;2.70;;
67227;SDS011;54139;42.616;23.748;2023-05-07T15:00:24;3.42;;;2.40;;
67227;SDS011;54139;42.616;23.748;2023-05-07T15:02:49;3.63;;;2.88;;
67227;SDS011;54139;42.616;23.748;2023-05-07T15:05:15;4.90;;;2.83;;
67227;SDS011;54139;42.616;23.748;2023-05-07T15:07:40;3.53;;;3.15;;
67227;SDS011;54139;42.616;23.748;2023-05-07T15:10:05;6.23;;;2.90;;
67227;SDS011;54139;42.616;23.748;2023-05-07T15:12:31;4.72;;;2.67;;
67227;SDS011;54139;42.616;23.748;2023-05-07T15:14:56;3.13;;;2.83;;
67227;SDS011;54139;42.616;23.748;2023-05-07T15:17:21;4.60;;;2.80;;
67227;SDS011;54139;42.616;23.748;2023-05-07T15:19:47;3.15;;;2.85;;
67227;SDS011;54139;42.616;23.748;2023-05-07T15:22:12;3.75;;;2.35;;
67227;SDS011;54139;42.616;23.748;2023-05-07T15:24:37;3.45;;;2.35;;
67227;SDS011;54139;42.616;23.748;2023-05-07T15:27:03;2.90;;;2.40;;
67227;SDS011;54139;42.616;23.748;2023-05-07T15:29:28;3.55;;;2.42;;
67227;SDS011;54139;42.616;23.748;2023-05-07T15:31:53;3.50;;;2.33;;
67227;SDS011;54139;42.616;23.748;2023-05-07T15:34:20;6.85;;;2.70;;
67227;SDS011;54139;42.616;23.748;2023-05-07T15:36:45;3.63;;;2.47;;
67227;SDS011;54139;42.616;23.748;2023-05-07T15:39:10;2.67;;;2.42;;
67227;SDS011;54139;42.616;23.748;2023-05-07T15:41:36;2.53;;;2.30;;
67227;SDS011;54139;42.616;23.748;2023-05-07T15:44:02;2.28;;;2.08;;
67227;SDS011;54139;42.616;23.748;2023-05-07T15:46:27;3.33;;;2.50;;
67227;SDS011;54139;42.616;23.748;2023-05-07T15:48:53;3.07;;;2.50;;
67227;SDS011;54139;42.616;23.748;2023-05-07T15:51:18;2.50;;;2.30;;
67227;SDS011;54139;42.616;23.748;2023-05-07T15:53:45;3.72;;;2.45;;
67227;SDS011;54139;42.616;23.748;2023-05-07T15:56:10;2.95;;;2.53;;
67227;SDS011;54139;42.616;23.748;2023-05-07T15:58:36;3.65;;;2.60;;
67227;SDS011;54139;42.616;23.748;2023-05-07T16:01:01;4.78;;;2.83;;
67227;SDS011;54139;42.616;23.748;2023-05-07T16:03:27;6.38;;;2.53;;
67227;SDS011;54139;42.616;23.748;2023-05-07T16:05:52;3.45;;;2.70;;
67227;SDS011;54139;42.616;23.748;2023-05-07T16:08:18;4.15;;;2.90;;
67227;SDS011;54139;42.616;23.748;2023-05-07T16:10:43;6.90;;;2.80;;
67227;SDS011;54139;42.616;23.748;2023-05-07T16:13:08;2.77;;;2.53;;
67227;SDS011;54139;42.616;23.748;2023-05-07T16:15:34;8.05;;;3.88;;
67227;SDS011;54139;42.616;23.748;2023-05-07T16:18:00;7.72;;;2.47;;
67227;SDS011;54139;42.616;23.748;2023-05-07T16:20:26;3.55;;;3.15;;
67227;SDS011;54139;42.616;23.748;2023-05-07T16:22:53;4.75;;;2.60;;
67227;SDS011;54139;42.616;23.748;2023-05-07T16:25:19;4.85;;;2.63;;
67227;SDS011;54139;42.616;23.748;2023-05-07T16:27:45;4.65;;;2.65;;
67227;SDS011;54139;42.616;23.748;2023-05-07T16:30:10;4.88;;;2.78;;
67227;SDS011;54139;42.616;23.748;2023-05-07T16:32:35;5.45;;;2.75;;
67227;SDS011;54139;42.616;23.748;2023-05-07T16:35:01;3.60;;;2.90;;
67227;SDS011;54139;42.616;23.748;2023-05-07T16:37:26;4.43;;;2.67;;
67227;SDS011;54139;42.616;23.748;2023-05-07T16:39:52;5.75;;;2.58;;
67227;SDS011;54139;42.616;23.748;2023-05-07T16:42:17;3.58;;;3.00;;
67227;SDS011;54139;42.616;23.748;2023-05-07T16:44:42;2.67;;;2.47;;
67227;SDS011;54139;42.616;23.748;2023-05-07T16:47:08;5.22;;;2.97;;
67227;SDS011;54139;42.616;23.748;2023-05-07T16:49:33;4.50;;;3.10;;
67227;SDS011;54139;42.616;23.748;2023-05-07T16:51:59;5.25;;;3.30;;
67227;SDS011;54139;42.616;23.748;2023-05-07T16:54:24;3.85;;;3.03;;
67227;SDS011;54139;42.616;23.748;2023-05-07T16:56:49;3.60;;;3.20;;
67227;SDS011;54139;42.616;23.748;2023-05-07T16:59:18;5.32;;;3.30;;
67227;SDS011;54139;42.616;23.748;2023-05-07T17:01:43;3.47;;;3.03;;
67227;SDS011;54139;42.616;23.748;2023-05-07T17:04:08;4.05;;;2.85;;
67227;SDS011;54139;42.616;23.748;2023-05-07T17:06:33;3.47;;;3.15;;
67227;SDS011;54139;42.616;23.748;2023-05-07T17:08:59;3.90;;;3.50;;
67227;SDS011;54139;42.616;23.748;2023-05-07T17:11:24;6.85;;;3.15;;
67227;SDS011;54139;42.616;23.748;2023-05-07T17:13:54;5.60;;;3.53;;
67227;SDS011;54139;42.616;23.748;2023-05-07T17:16:20;4.10;;;3.55;;
67227;SDS011;54139;42.616;23.748;2023-05-07T17:18:45;3.72;;;3.30;;
67227;SDS011;54139;42.616;23.748;2023-05-07T17:21:10;5.65;;;3.42;;
67227;SDS011;54139;42.616;23.748;2023-05-07T17:23:36;3.50;;;3.10;;
67227;SDS011;54139;42.616;23.748;2023-05-07T17:26:01;4.00;;;3.20;;
67227;SDS011;54139;42.616;23.748;2023-05-07T17:28:26;3.65;;;2.90;;
67227;SDS011;54139;42.616;23.748;2023-05-07T17:30:52;4.53;;;3.03;;
67227;SDS011;54139;42.616;23.748;2023-05-07T17:33:17;3.40;;;3.13;;
67227;SDS011;54139;42.616;23.748;2023-05-07T17:35:42;4.00;;;3.55;;
67227;SDS011;54139;42.616;23.748;2023-05-07T17:38:08;4.15;;;3.42;;
67227;SDS011;54139;42.616;23.748;2023-05-07T17:40:33;4.20;;;3.73;;
67227;SDS011;54139;42.616;23.748;2023-05-07T17:43:01;7.03;;;4.00;;
67227;SDS011;54139;42.616;23.748;2023-05-07T17:48:35;4.93;;;3.40;;
67227;SDS011;54139;42.616;23.748;2023-05-07T17:51:10;6.63;;;3.55;;
67227;SDS011;54139;42.616;23.748;2023-05-07T17:56:55;4.82;;;3.50;;
67227;SDS011;54139;42.616;23.748;2023-05-07T17:59:30;5.07;;;3.47;;
67227;SDS011;54139;42.616;23.748;2023-05-07T18:02:50;8.98;;;3.83;;
67227;SDS011;54139;42.616;23.748;2023-05-07T18:10:51;3.78;;;3.47;;
67227;SDS011;54139;42.616;23.748;2023-05-07T18:13:18;6.65;;;3.88;;
67227;SDS011;54139;42.616;23.748;2023-05-07T18:16:25;3.47;;;3.17;;
67227;SDS011;54139;42.616;23.748;2023-05-07T18:18:59;4.50;;;3.75;;
67227;SDS011;54139;42.616;23.748;2023-05-07T18:21:24;5.50;;;3.67;;
67227;SDS011;54139;42.616;23.748;2023-05-07T18:23:55;3.97;;;3.67;;
67227;SDS011;54139;42.616;23.748;2023-05-07T18:26:21;4.05;;;3.67;;
67227;SDS011;54139;42.616;23.748;2023-05-07T18:28:51;4.07;;;3.73;;
67227;SDS011;54139;42.616;23.748;2023-05-07T18:31:47;5.57;;;4.00;;
67227;SDS011;54139;42.616;23.748;2023-05-07T18:34:12;4.97;;;3.90;;
67227;SDS011;54139;42.616;23.748;2023-05-07T18:36:43;4.65;;;3.58;;
67227;SDS011;54139;42.616;23.748;2023-05-07T18:39:08;3.78;;;3.53;;
67227;SDS011;54139;42.616;23.748;2023-05-07T18:49:19;3.97;;;3.67;;
67227;SDS011;54139;42.616;23.748;2023-05-07T18:51:46;4.50;;;3.58;;
67227;SDS011;54139;42.616;23.748;2023-05-07T18:54:11;8.32;;;3.75;;
67227;SDS011;54139;42.616;23.748;2023-05-07T18:56:36;9.88;;;3.63;;
67227;SDS011;54139;42.616;23.748;2023-05-07T18:59:03;4.15;;;3.83;;
67227;SDS011;54139;42.616;23.748;2023-05-07T19:01:33;3.45;;;3.15;;
67227;SDS011;54139;42.616;23.748;2023-05-07T19:03:59;5.00;;;3.60;;
67227;SDS011;54139;42.616;23.748;2023-05-07T19:06:30;4.07;;;3.20;;
67227;SDS011;54139;42.616;23.748;2023-05-07T19:09:14;5.25;;;3.28;;
67227;SDS011;54139;42.616;23.748;2023-05-07T19:11:39;3.25;;;2.80;;
67227;SDS011;54139;42.616;23.748;2023-05-07T19:14:08;3.55;;;2.80;;
67227;SDS011;54139;42.616;23.748;2023-05-07T19:16:35;3.70;;;3.13;;
67227;SDS011;54139;42.616;23.748;2023-05-07T19:19:01;3.30;;;3.00;;